Time;durP1;ratioP1;P1;durP2;ratioP2;P2;SDS_P1;SDS_P2;PMS_P1;PMS_P2;Temp;Humidity;BMP_temperature;BMP_pressure;BME280_temperature;BME280_humidity;BME280_pressure;Samples;Min_cycle;Max_cycle;Signal;HPM_P1;HPM_P2
2022/12/10 00:00:40;;;;;;;140.50;64.78;;;;;;;0.86;100.00;98642.19;5086116;28;20456;-82
2022/12/10 00:03:06;;;;;;;126.85;56.33;;;;;;;0.87;100.00;98652.41;5087856;28;20040;-82
2022/12/10 00:05:34;;;;;;;129.40;58.28;;;;;;;0.83;100.00;98643.09;5093369;28;20025;-82
2022/12/10 00:07:59;;;;;;;129.30;58.65;;;;;;;0.80;100.00;98629.50;5093207;28;20064;-83
2022/12/10 00:10:25;;;;;;;136.60;62.50;;;;;;;0.85;100.00;98640.53;5093730;28;20099;-83
2022/12/10 00:12:50;;;;;;;140.23;63.00;;;;;;;0.90;100.00;98646.38;5093122;28;20020;-83
2022/12/10 00:15:16;;;;;;;127.55;60.30;;;;;;;0.85;100.00;98638.81;5074986;28;20073;-82
2022/12/10 00:17:42;;;;;;;135.43;64.53;;;;;;;0.88;100.00;98640.44;5092954;28;20116;-83
2022/12/10 00:20:08;;;;;;;138.40;64.15;;;;;;;0.86;100.00;98642.19;5075257;28;20020;-82
2022/12/10 00:22:34;;;;;;;123.90;55.80;;;;;;;0.87;100.00;98647.28;5074961;28;20024;-83
2022/12/10 00:24:59;;;;;;;126.28;57.92;;;;;;;0.79;100.00;98638.94;5074746;28;20030;-82
2022/12/10 00:27:24;;;;;;;119.30;56.22;;;;;;;0.83;100.00;98647.38;5093258;28;20039;-82
2022/12/10 00:29:50;;;;;;;116.55;55.85;;;;;;;0.83;100.00;98642.25;5074681;28;20031;-83
2022/12/10 00:32:15;;;;;;;113.60;54.47;;;;;;;0.72;100.00;98624.59;5092928;28;20024;-82
2022/12/10 00:34:40;;;;;;;486.42;334.40;;;;;;;0.83;100.00;98634.56;5092818;28;20048;-82
2022/12/10 00:37:05;;;;;;;121.82;60.63;;;;;;;0.81;100.00;98639.75;5093067;28;20020;-82
2022/12/10 00:39:31;;;;;;;152.65;71.45;;;;;;;0.80;100.00;98648.31;5092864;28;20027;-82
2022/12/10 00:41:56;;;;;;;110.88;54.90;;;;;;;0.81;100.00;98634.63;5092684;28;20129;-82
2022/12/10 00:44:21;;;;;;;111.50;52.38;;;;;;;0.81;100.00;98636.34;5092711;28;20024;-82
2022/12/10 00:46:47;;;;;;;111.90;52.00;;;;;;;0.80;100.00;98640.63;5092306;28;20455;-82
2022/12/10 00:49:12;;;;;;;138.85;62.63;;;;;;;0.78;100.00;98638.97;5092559;28;20362;-82
2022/12/10 00:51:37;;;;;;;106.05;51.10;;;;;;;0.75;100.00;98640.72;5092805;28;20028;-82
2022/12/10 00:54:03;;;;;;;109.32;51.33;;;;;;;0.77;100.00;98642.41;5074058;28;20024;-82
2022/12/10 00:56:30;;;;;;;101.63;50.47;;;;;;;0.77;100.00;98639.84;5074407;28;20024;-82
2022/12/10 00:58:56;;;;;;;105.18;49.08;;;;;;;0.73;100.00;98636.53;5092329;28;20121;-82
2022/12/10 01:01:27;;;;;;;108.15;52.90;;;;;;;0.79;100.00;98641.50;5074106;28;20043;-82
2022/12/10 01:03:56;;;;;;;106.63;51.97;;;;;;;0.82;100.00;98645.72;5073978;28;20531;-82
2022/12/10 01:06:22;;;;;;;107.00;52.95;;;;;;;0.82;100.00;98649.13;5073732;28;20527;-82
2022/12/10 01:08:49;;;;;;;105.28;50.50;;;;;;;0.83;100.00;98647.38;5092336;28;20020;-82
2022/12/10 01:11:17;;;;;;;103.35;51.08;;;;;;;0.82;100.00;98653.41;5092328;28;20031;-82
2022/12/10 01:13:43;;;;;;;107.00;51.72;;;;;;;0.76;100.00;98636.47;5074048;28;20107;-82
2022/12/10 01:16:11;;;;;;;100.63;49.47;;;;;;;0.80;100.00;98632.06;5091991;28;20024;-82
2022/12/10 01:18:37;;;;;;;101.57;50.38;;;;;;;0.81;100.00;98639.75;5092023;28;20028;-82
2022/12/10 01:21:08;;;;;;;103.75;54.13;;;;;;;0.82;100.00;98641.44;5092262;28;20035;-82
2022/12/10 01:23:37;;;;;;;111.97;53.63;;;;;;;0.79;100.00;98640.66;5092127;28;20059;-82
2022/12/10 01:26:04;;;;;;;97.18;48.88;;;;;;;0.80;100.00;98637.19;5091882;28;20034;-82
2022/12/10 01:28:35;;;;;;;102.95;50.63;;;;;;;0.72;100.00;98633.13;5092151;28;20020;-82
2022/12/10 01:31:02;;;;;;;97.50;48.88;;;;;;;0.72;100.00;98638.25;5073785;28;20020;-82
2022/12/10 01:33:28;;;;;;;102.97;52.03;;;;;;;0.71;100.00;98636.53;5092140;28;20028;-82
2022/12/10 01:35:53;;;;;;;94.55;49.45;;;;;;;0.70;100.00;98636.59;5091794;28;20073;-82
2022/12/10 01:38:18;;;;;;;123.05;57.63;;;;;;;0.74;100.00;98643.31;5091897;28;20344;-82
2022/12/10 01:40:44;;;;;;;107.22;51.13;;;;;;;0.78;100.00;98652.63;5092182;28;20103;-82
2022/12/10 01:43:13;;;;;;;99.18;47.67;;;;;;;0.76;100.00;98654.41;5092041;28;20016;-82
2022/12/10 01:45:38;;;;;;;100.60;47.67;;;;;;;0.80;100.00;98657.72;5092036;28;20024;-82
2022/12/10 01:48:04;;;;;;;102.47;48.83;;;;;;;0.73;100.00;98652.72;5091816;28;20527;-82
2022/12/10 01:50:29;;;;;;;92.88;48.50;;;;;;;0.77;100.00;98652.69;5092208;28;20024;-83
2022/12/10 01:52:54;;;;;;;100.70;46.28;;;;;;;0.79;100.00;98659.44;5091648;28;20024;-82
2022/12/10 01:55:59;;;;;;;98.90;48.20;;;;;;;0.77;100.00;98647.53;5091732;28;20024;-82
2022/12/10 01:58:24;;;;;;;95.68;46.30;;;;;;;0.77;100.00;98660.38;4990114;28;20029;-82
2022/12/10 02:00:58;;;;;;;99.93;49.45;;;;;;;0.79;100.00;98658.59;4989688;28;20467;-82
2022/12/10 02:04:01;;;;;;;103.65;50.35;;;;;;;0.82;100.00;98661.09;4973372;28;20111;-82
2022/12/10 02:06:53;;;;;;;96.80;45.70;;;;;;;0.82;100.00;98655.97;4989919;28;20030;-82
2022/12/10 02:09:31;;;;;;;122.53;64.03;;;;;;;0.71;100.00;98635.69;4989817;28;20038;-82
2022/12/10 02:12:25;;;;;;;108.70;53.67;;;;;;;0.72;100.00;98640.81;4989443;28;20026;-82
2022/12/10 02:15:00;;;;;;;100.32;47.28;;;;;;;0.79;100.00;98650.91;4988790;28;20026;-82
2022/12/10 02:17:31;;;;;;;104.47;48.78;;;;;;;0.71;100.00;98635.69;4992941;28;20374;-82
2022/12/10 02:20:02;;;;;;;118.93;52.20;;;;;;;0.67;100.00;98629.78;4993294;28;20045;-82
2022/12/10 02:22:32;;;;;;;134.35;56.72;;;;;;;0.79;100.00;98653.47;4993619;28;20038;-82
2022/12/10 02:25:00;;;;;;;106.93;47.47;;;;;;;0.75;100.00;98645.00;4993304;28;20026;-82
2022/12/10 02:27:45;;;;;;;99.50;46.55;;;;;;;0.71;100.00;98651.06;4993619;28;20037;-82
2022/12/10 02:30:10;;;;;;;100.82;45.60;;;;;;;0.70;100.00;98650.25;5068147;28;20029;-82
2022/12/10 02:32:43;;;;;;;107.30;46.95;;;;;;;0.71;100.00;98646.78;5075082;28;20027;-82
2022/12/10 02:35:15;;;;;;;101.10;47.33;;;;;;;0.72;100.00;98643.38;5074593;28;20021;-82
2022/12/10 02:37:51;;;;;;;108.07;47.15;;;;;;;0.74;100.00;98645.88;5075110;28;20027;-82
2022/12/10 02:40:26;;;;;;;104.63;44.78;;;;;;;0.75;100.00;98652.69;5075027;28;20024;-82
2022/12/10 02:42:52;;;;;;;137.63;60.08;;;;;;;0.67;100.00;98637.47;5032116;28;20037;-82
2022/12/10 02:45:21;;;;;;;103.38;46.10;;;;;;;0.69;100.00;98637.47;5032378;28;20030;-82
2022/12/10 02:47:47;;;;;;;104.43;42.60;;;;;;;0.75;100.00;98658.66;5032431;28;20365;-82
2022/12/10 02:50:15;;;;;;;86.43;40.70;;;;;;;0.75;100.00;98657.81;5032031;28;20398;-82
2022/12/10 02:52:41;;;;;;;100.15;43.78;;;;;;;0.72;100.00;98642.53;5032215;28;20417;-82
2022/12/10 02:55:11;;;;;;;97.60;45.92;;;;;;;0.75;100.00;98655.25;5015329;28;20037;-82
2022/12/10 02:57:42;;;;;;;118.47;50.97;;;;;;;0.76;100.00;98662.09;5015605;28;20045;-82
2022/12/10 03:00:16;;;;;;;98.78;45.50;;;;;;;0.74;100.00;98653.56;5031825;28;20268;-82
2022/12/10 03:03:06;;;;;;;92.68;43.55;;;;;;;0.79;100.00;98663.72;5042670;28;20068;-82
2022/12/10 03:05:53;;;;;;;98.05;46.85;;;;;;;0.81;100.00;98667.94;5052031;28;20036;-82
2022/12/10 03:08:24;;;;;;;145.50;75.25;;;;;;;0.81;100.00;98660.25;5035075;28;20041;-82
2022/12/10 03:10:54;;;;;;;;;;;;;;;0.82;100.00;98671.34;5035731;28;20029;-82
2022/12/10 03:13:28;;;;;;;91.75;46.00;;;;;;;0.75;100.00;98662.94;5058639;28;19909;-82
2022/12/10 03:15:55;;;;;;;88.57;44.53;;;;;;;0.72;100.00;98671.56;5072729;28;20530;-82
2022/12/10 03:18:24;;;;;;;93.05;46.63;;;;;;;0.74;100.00;98680.03;5074251;28;20020;-82
2022/12/10 03:20:52;;;;;;;112.03;53.38;;;;;;;0.75;100.00;98683.44;5074099;28;20112;-82
2022/12/10 03:23:18;;;;;;;95.88;46.67;;;;;;;0.70;100.00;98672.47;5074027;28;20062;-82
2022/12/10 03:25:47;;;;;;;86.03;44.10;;;;;;;0.69;100.00;98665.66;5074273;28;20139;-82
2022/12/10 03:28:13;;;;;;;98.05;47.40;;;;;;;0.70;100.00;98663.03;5073260;28;20021;-82
2022/12/10 03:30:40;;;;;;;95.78;48.28;;;;;;;0.66;100.00;98663.16;5074072;28;20095;-82
2022/12/10 03:33:06;;;;;;;87.03;43.22;;;;;;;0.81;100.00;98682.47;5073765;28;20024;-82
2022/12/10 03:35:32;;;;;;;81.85;42.03;;;;;;;0.76;100.00;98682.59;5073838;28;20063;-82
2022/12/10 03:37:58;;;;;;;84.40;41.40;;;;;;;0.73;100.00;98687.78;5074148;28;20425;-82
2022/12/10 03:40:25;;;;;;;78.93;40.53;;;;;;;0.63;100.00;98661.53;5074061;28;20017;-82
2022/12/10 03:42:51;;;;;;;82.13;41.28;;;;;;;0.71;100.00;98680.09;5073849;28;20028;-82
2022/12/10 03:45:16;;;;;;;78.90;42.45;;;;;;;0.72;100.00;98681.81;5073591;28;20024;-82
2022/12/10 03:47:42;;;;;;;86.43;43.80;;;;;;;0.77;100.00;98686.00;5072277;28;20023;-82
2022/12/10 03:50:08;;;;;;;91.63;53.78;;;;;;;0.73;100.00;98680.09;5073357;28;20028;-83
2022/12/10 03:52:34;;;;;;;331.05;118.88;;;;;;;0.79;100.00;98685.06;5073990;28;20044;-83
2022/12/10 03:54:59;;;;;;;94.50;46.38;;;;;;;0.77;100.00;98679.16;5073351;28;20360;-82
2022/12/10 03:57:24;;;;;;;90.43;43.65;;;;;;;0.73;100.00;98668.13;5073581;28;20074;-82
2022/12/10 03:59:50;;;;;;;97.15;48.05;;;;;;;0.78;100.00;98690.22;5073454;28;20021;-82
2022/12/10 04:02:15;;;;;;;96.63;46.60;;;;;;;0.77;100.00;98689.41;5080472;28;20047;-82
2022/12/10 04:04:40;;;;;;;78.38;41.75;;;;;;;0.69;100.00;98670.78;5093549;28;20068;-82
2022/12/10 04:07:06;;;;;;;71.88;38.67;;;;;;;0.69;100.00;98671.63;5093753;28;20035;-82
2022/12/10 04:09:31;;;;;;;75.80;39.70;;;;;;;0.68;100.00;98677.63;5093653;28;20016;-82
2022/12/10 04:11:57;;;;;;;74.10;38.45;;;;;;;0.72;100.00;98686.09;5093321;28;20340;-82
2022/12/10 04:17:06;;;;;;;76.15;37.83;;;;;;;0.63;100.00;98681.16;5092934;28;20386;-82
2022/12/10 04:19:32;;;;;;;79.72;40.95;;;;;;;0.67;100.00;98687.91;5075189;28;20016;-82
2022/12/10 04:27:39;;;;;;;77.15;40.75;;;;;;;0.68;100.00;98689.59;5050658;28;20538;-82
2022/12/10 04:30:08;;;;;;;85.90;47.15;;;;;;;0.64;100.00;98699.06;5050161;28;20052;-82
2022/12/10 04:32:33;;;;;;;112.43;52.17;;;;;;;0.65;100.00;98694.78;5050667;28;20052;-82
2022/12/10 04:34:59;;;;;;;156.68;66.25;;;;;;;0.68;100.00;98708.38;5050003;28;20512;-82
2022/12/10 04:37:27;;;;;;;110.30;51.78;;;;;;;0.62;100.00;98708.50;5050217;28;20029;-82
2022/12/10 04:39:52;;;;;;;75.65;38.67;;;;;;;0.62;100.00;98705.09;5049158;28;20103;-82
2022/12/10 04:42:19;;;;;;;77.43;40.05;;;;;;;0.61;100.00;98698.28;5049879;28;20115;-82
2022/12/10 04:44:44;;;;;;;69.57;37.88;;;;;;;0.60;100.00;98694.91;5033443;28;20025;-82
2022/12/10 04:47:10;;;;;;;71.00;38.42;;;;;;;0.65;100.00;98705.03;5049838;28;20126;-82
2022/12/10 04:49:36;;;;;;;68.03;36.70;;;;;;;0.60;100.00;98696.63;5050066;28;20029;-83
2022/12/10 04:52:02;;;;;;;66.72;35.65;;;;;;;0.61;100.00;98695.72;5049875;28;20512;-82
2022/12/10 04:54:29;;;;;;;67.15;35.45;;;;;;;0.65;100.00;98707.59;5049767;28;20518;-82
2022/12/10 04:56:54;;;;;;;69.20;37.92;;;;;;;0.65;100.00;98702.47;5049878;28;20108;-82
2022/12/10 04:59:20;;;;;;;69.53;38.03;;;;;;;0.61;100.00;98690.59;5050069;28;20107;-83
2022/12/10 05:01:45;;;;;;;70.78;39.20;;;;;;;0.56;100.00;98688.16;5092623;28;20101;-82
2022/12/10 05:04:13;;;;;;;68.40;37.45;;;;;;;0.65;100.00;98699.91;5092245;28;20020;-82
2022/12/10 05:06:38;;;;;;;74.53;37.35;;;;;;;0.63;100.00;98704.22;5092352;28;20019;-82
2022/12/10 05:09:04;;;;;;;73.75;38.20;;;;;;;0.64;100.00;98709.31;5092454;28;20402;-82
2022/12/10 05:11:31;;;;;;;67.97;37.88;;;;;;;0.55;100.00;98690.72;5074023;28;20444;-82
2022/12/10 05:13:57;;;;;;;66.50;37.08;;;;;;;0.59;100.00;98706.03;5092502;28;20157;-82
2022/12/10 05:16:25;;;;;;;62.47;36.47;;;;;;;0.51;100.00;98697.66;5092086;28;20106;-83
2022/12/10 05:18:51;;;;;;;70.72;39.42;;;;;;;0.50;100.00;98703.63;5074071;28;20016;-82
2022/12/10 05:21:19;;;;;;;73.43;40.53;;;;;;;0.47;100.00;98696.88;5092042;28;20066;-82
2022/12/10 05:23:47;;;;;;;66.75;37.05;;;;;;;0.47;100.00;98699.44;5092107;28;20028;-83
2022/12/10 05:26:18;;;;;;;71.28;38.78;;;;;;;0.56;100.00;98705.25;5091994;28;20043;-83
2022/12/10 05:28:51;;;;;;;72.85;39.20;;;;;;;0.56;100.00;98712.94;5092169;28;20023;-82
2022/12/10 05:31:21;;;;;;;72.07;39.33;;;;;;;0.52;100.00;98706.19;5091935;28;20024;-82
2022/12/10 05:33:46;;;;;;;71.95;40.47;;;;;;;0.45;100.00;98697.78;5092030;28;20035;-82
2022/12/10 05:36:14;;;;;;;70.55;37.42;;;;;;;0.50;100.00;98712.16;5073285;28;20020;-83
2022/12/10 05:38:40;;;;;;;72.35;39.35;;;;;;;0.35;100.00;98692.00;5091752;28;20049;-82
2022/12/10 05:41:08;;;;;;;76.10;38.83;;;;;;;0.47;100.00;98719.94;5073539;28;20192;-82
2022/12/10 05:43:33;;;;;;;71.13;37.33;;;;;;;0.48;100.00;98725.91;5049053;28;20178;-82
2022/12/10 05:46:01;;;;;;;68.97;38.50;;;;;;;0.40;100.00;98720.91;5049069;28;20112;-82
2022/12/10 05:48:26;;;;;;;68.55;37.67;;;;;;;0.43;100.00;98718.31;5049205;28;20033;-82
2022/12/10 05:50:52;;;;;;;69.43;37.97;;;;;;;0.37;100.00;98705.59;5050009;28;20372;-83
2022/12/10 05:53:17;;;;;;;77.40;40.35;;;;;;;0.40;100.00;98707.28;5053208;28;20515;-83
2022/12/10 05:55:43;;;;;;;68.78;39.80;;;;;;;0.41;100.00;98717.47;5053366;28;20503;-83
2022/12/10 05:58:08;;;;;;;79.45;41.63;;;;;;;0.44;100.00;98722.53;5053046;28;20101;-83
2022/12/10 06:00:34;;;;;;;71.25;37.70;;;;;;;0.40;100.00;98715.81;5053148;28;20039;-83
2022/12/10 06:02:59;;;;;;;78.55;40.97;;;;;;;0.39;100.00;98709.00;5053112;28;20697;-83
2022/12/10 06:05:24;;;;;;;78.07;42.08;;;;;;;0.39;100.00;98713.28;5053232;28;20367;-83
2022/12/10 06:07:49;;;;;;;74.47;40.63;;;;;;;0.46;100.00;98723.38;5036141;28;20029;-83
2022/12/10 06:10:15;;;;;;;81.20;43.35;;;;;;;0.36;100.00;98700.53;5053069;28;20543;-83
2022/12/10 06:12:40;;;;;;;75.25;40.63;;;;;;;0.42;100.00;98711.50;5052892;28;20086;-83
2022/12/10 06:15:06;;;;;;;73.40;39.85;;;;;;;0.39;100.00;98715.84;5083597;28;20278;-83
2022/12/10 06:17:31;;;;;;;72.95;40.10;;;;;;;0.29;100.00;98704.91;5095690;28;20032;-83
2022/12/10 06:19:57;;;;;;;73.10;40.97;;;;;;;0.29;100.00;98716.88;5095492;28;20522;-83
2022/12/10 06:22:22;;;;;;;74.75;40.55;;;;;;;0.23;100.00;98711.03;5095246;28;20046;-83
2022/12/10 06:24:48;;;;;;;69.47;38.83;;;;;;;0.32;100.00;98738.16;5095750;28;20054;-83
2022/12/10 06:27:13;;;;;;;71.93;42.15;;;;;;;0.33;100.00;98734.72;5077124;28;20027;-83
2022/12/10 06:29:38;;;;;;;73.93;40.13;;;;;;;0.34;100.00;98727.88;5077323;28;20486;-84
2022/12/10 06:32:04;;;;;;;65.88;37.22;;;;;;;0.34;100.00;98728.75;5095273;28;20356;-83
2022/12/10 06:34:29;;;;;;;67.35;40.03;;;;;;;0.30;100.00;98727.13;5077023;28;20016;-83
2022/12/10 06:36:54;;;;;;;70.45;40.33;;;;;;;0.33;100.00;98726.19;5095175;28;20103;-83
2022/12/10 06:39:20;;;;;;;71.28;41.15;;;;;;;0.28;100.00;98722.88;5095168;28;20024;-83
2022/12/10 06:41:45;;;;;;;70.55;41.22;;;;;;;0.38;100.00;98747.44;5077101;28;20404;-83
2022/12/10 06:44:11;;;;;;;65.95;39.55;;;;;;;0.24;100.00;98722.94;5095012;28;20024;-83
2022/12/10 06:46:37;;;;;;;67.93;39.67;;;;;;;0.27;100.00;98722.06;5095067;28;20070;-83
2022/12/10 06:49:03;;;;;;;62.67;38.80;;;;;;;0.31;100.00;98731.34;5095114;28;20031;-83
2022/12/10 06:51:29;;;;;;;70.43;38.90;;;;;;;0.31;100.00;98736.47;5094615;28;20035;-84
2022/12/10 06:53:55;;;;;;;71.55;39.47;;;;;;;0.31;100.00;98740.75;5095045;28;20387;-85
2022/12/10 06:56:20;;;;;;;68.50;39.53;;;;;;;0.20;100.00;98728.16;5076409;28;20359;-85
2022/12/10 06:58:47;;;;;;;72.45;40.55;;;;;;;0.26;100.00;98742.56;5076850;28;20057;-85
2022/12/10 07:01:16;;;;;;;72.20;42.35;;;;;;;0.21;100.00;98734.97;5094625;28;20024;-85
2022/12/10 07:03:42;;;;;;;75.10;41.40;;;;;;;0.29;100.00;98747.63;5071946;28;20384;-85
2022/12/10 07:06:09;;;;;;;83.03;52.00;;;;;;;0.32;100.00;98743.28;5074209;28;20031;-85
2022/12/10 07:08:36;;;;;;;94.55;62.22;;;;;;;0.32;100.00;98747.56;5073196;28;20031;-85
2022/12/10 07:11:07;;;;;;;71.18;40.78;;;;;;;0.24;100.00;98742.59;5074486;28;20074;-86
2022/12/10 07:13:33;;;;;;;66.78;40.38;;;;;;;0.22;100.00;98737.50;5073113;28;20028;-85
2022/12/10 07:15:58;;;;;;;68.35;39.45;;;;;;;0.28;100.00;98751.06;5074340;28;20040;-85
2022/12/10 07:18:23;;;;;;;66.43;40.83;;;;;;;0.26;100.00;98753.66;5072426;28;20029;-85
2022/12/10 07:20:49;;;;;;;68.63;41.60;;;;;;;0.29;100.00;98768.94;5074310;28;20024;-85
2022/12/10 07:23:14;;;;;;;71.40;41.90;;;;;;;0.23;100.00;98753.72;5072992;28;20079;-85
2022/12/10 07:25:39;;;;;;;74.72;42.38;;;;;;;0.29;100.00;98768.94;5072292;28;20025;-85
2022/12/10 07:28:04;;;;;;;70.70;41.63;;;;;;;0.31;100.00;98767.22;5073752;28;20031;-85
2022/12/10 07:30:30;;;;;;;89.93;53.20;;;;;;;0.23;100.00;98751.16;5072602;28;20086;-86
2022/12/10 07:32:55;;;;;;;74.40;42.00;;;;;;;0.14;100.00;98733.41;5074071;28;20060;-86
2022/12/10 07:35:20;;;;;;;94.20;52.10;;;;;;;0.29;100.00;98765.53;5073644;28;20024;-85
2022/12/10 07:37:46;;;;;;;77.25;42.45;;;;;;;0.28;100.00;98767.28;5072608;28;20024;-84
2022/12/10 07:40:11;;;;;;;70.13;39.75;;;;;;;0.22;100.00;98755.44;5072506;28;20561;-84
2022/12/10 07:42:36;;;;;;;88.35;46.60;;;;;;;0.26;100.00;98766.47;5073932;28;20028;-83
2022/12/10 07:45:03;;;;;;;75.30;40.88;;;;;;;0.30;100.00;98767.25;5073902;28;20028;-84
2022/12/10 07:47:28;;;;;;;71.55;39.72;;;;;;;0.31;100.00;98779.19;5050948;28;20041;-83
2022/12/10 07:49:54;;;;;;;71.60;40.72;;;;;;;0.29;100.00;98766.38;5051216;28;20111;-83
2022/12/10 07:52:19;;;;;;;72.43;41.30;;;;;;;0.31;100.00;98772.34;5051106;28;20037;-83
2022/12/10 07:54:44;;;;;;;78.55;42.35;;;;;;;0.33;100.00;98765.47;5034496;28;20021;-83
2022/12/10 07:57:09;;;;;;;96.45;48.28;;;;;;;0.37;100.00;98767.09;5050994;28;20182;-84
2022/12/10 07:59:35;;;;;;;63.90;39.85;;;;;;;0.27;100.00;98746.81;5034432;28;20067;-86
2022/12/10 08:02:00;;;;;;;70.85;41.20;;;;;;;0.32;100.00;98766.34;5034098;28;20040;-85
2022/12/10 08:04:28;;;;;;;78.53;43.40;;;;;;;0.34;100.00;98764.59;5030684;28;20033;-85
2022/12/10 08:06:55;;;;;;;81.38;47.90;;;;;;;0.40;100.00;98771.31;5030864;28;20044;-85
2022/12/10 08:09:20;;;;;;;78.30;44.17;;;;;;;0.40;100.00;98781.56;5014249;28;20033;-83
2022/12/10 08:11:46;;;;;;;77.47;45.15;;;;;;;0.33;100.00;98764.63;5031199;28;20372;-83
2022/12/10 08:14:11;;;;;;;75.60;46.60;;;;;;;0.43;100.00;98771.25;5030800;28;20117;-83
2022/12/10 08:16:36;;;;;;;100.55;58.55;;;;;;;0.43;100.00;98769.53;5030951;28;20389;-83
2022/12/10 08:19:02;;;;;;;84.60;49.00;;;;;;;0.48;100.00;98779.69;5045329;28;20033;-83
2022/12/10 08:21:30;;;;;;;85.63;47.10;;;;;;;0.48;100.00;98772.84;5050616;28;20105;-82
2022/12/10 08:23:56;;;;;;;71.15;42.63;;;;;;;0.54;100.00;98787.25;5050762;28;20036;-82
2022/12/10 08:26:24;;;;;;;71.07;41.70;;;;;;;0.47;100.00;98778.84;5050421;28;20082;-82
2022/12/10 08:28:50;;;;;;;68.13;41.17;;;;;;;0.47;100.00;98780.56;5050542;28;20066;-87
2022/12/10 08:31:17;;;;;;;76.47;44.47;;;;;;;0.49;100.00;98783.94;5033619;28;20115;-86
2022/12/10 08:33:43;;;;;;;71.78;43.17;;;;;;;0.45;100.00;98772.06;5050513;28;20052;-86
2022/12/10 08:36:11;;;;;;;75.03;45.08;;;;;;;0.50;100.00;98778.78;5063205;28;20029;-86
2022/12/10 08:38:36;;;;;;;121.82;63.50;;;;;;;0.43;100.00;98764.41;5072878;28;20027;-87
2022/12/10 08:41:07;;;;;;;92.88;52.58;;;;;;;0.55;100.00;98786.41;5071431;28;20103;-86
2022/12/10 08:43:32;;;;;;;75.32;44.35;;;;;;;0.45;100.00;98766.94;5029928;28;20061;-86
2022/12/10 08:45:58;;;;;;;85.05;49.30;;;;;;;0.48;100.00;98777.97;5013605;28;20188;-86
2022/12/10 08:48:24;;;;;;;116.47;68.32;;;;;;;0.49;100.00;98784.78;5030050;28;20065;-85
2022/12/10 08:50:49;;;;;;;78.22;45.60;;;;;;;0.34;100.00;98771.41;5030063;28;20472;-85
2022/12/10 08:53:14;;;;;;;73.05;42.42;;;;;;;0.47;100.00;98786.53;5013359;28;20521;-87
2022/12/10 08:55:40;;;;;;;81.28;46.83;;;;;;;0.50;100.00;98803.56;5030113;28;20156;-86
2022/12/10 08:58:05;;;;;;;88.30;55.67;;;;;;;0.49;100.00;98796.75;5030092;28;20074;-86
2022/12/10 09:00:31;;;;;;;74.35;44.60;;;;;;;0.38;100.00;98780.72;5013180;28;20040;-87
2022/12/10 09:02:56;;;;;;;82.47;48.15;;;;;;;0.51;100.00;98800.13;5022565;28;20120;-85
2022/12/10 09:05:21;;;;;;;99.18;51.05;;;;;;;0.42;100.00;98782.34;5029693;28;20032;-86
2022/12/10 09:07:47;;;;;;;107.72;60.72;;;;;;;0.48;100.00;98795.91;5013417;28;20519;-85
2022/12/10 09:10:12;;;;;;;75.25;45.92;;;;;;;0.51;100.00;98792.44;5030103;28;20038;-85
2022/12/10 09:12:38;;;;;;;68.50;41.22;;;;;;;0.50;100.00;98793.31;5012962;28;20044;-86
2022/12/10 09:15:05;;;;;;;81.22;48.33;;;;;;;0.50;100.00;98790.75;5042356;28;20175;-85
2022/12/10 09:17:30;;;;;;;78.38;45.25;;;;;;;0.46;100.00;98789.97;5054127;28;20515;-85
2022/12/10 09:19:55;;;;;;;78.68;44.67;;;;;;;0.52;100.00;98800.97;5054378;28;20016;-86
2022/12/10 09:22:21;;;;;;;83.88;47.42;;;;;;;0.48;100.00;98793.34;5054031;28;20024;-85
2022/12/10 09:24:46;;;;;;;71.90;40.58;;;;;;;0.54;100.00;98794.94;5054112;28;20024;-85
2022/12/10 09:27:11;;;;;;;72.63;41.10;;;;;;;0.59;100.00;98790.59;5071509;28;20025;-86
2022/12/10 09:29:37;;;;;;;72.30;41.70;;;;;;;0.62;100.00;98795.63;5053612;28;20100;-86
2022/12/10 09:32:02;;;;;;;65.35;40.47;;;;;;;0.50;100.00;98773.66;5054168;28;20020;-85
2022/12/10 09:34:27;;;;;;;86.30;51.50;;;;;;;0.72;100.00;98792.00;5049079;28;20095;-85
2022/12/10 09:36:53;;;;;;;77.80;45.80;;;;;;;0.72;100.00;98786.88;5049497;28;20041;-85
2022/12/10 09:39:18;;;;;;;75.03;43.20;;;;;;;0.73;100.00;98788.56;5049030;28;20033;-85
2022/12/10 09:42:01;;;;;;;69.25;40.47;;;;;;;0.78;100.00;98797.88;5049450;28;20452;-85
2022/12/10 09:44:47;;;;;;;69.32;42.88;;;;;;;0.78;100.00;98790.19;5049026;28;20043;-85
2022/12/10 09:47:12;;;;;;;84.22;49.08;;;;;;;0.75;100.00;98780.84;5032827;28;20112;-85
2022/12/10 09:49:56;;;;;;;77.35;46.00;;;;;;;0.84;100.00;98793.44;5049130;28;20033;-85
2022/12/10 09:52:24;;;;;;;63.97;39.05;;;;;;;0.84;100.00;98788.34;5049118;28;20029;-85
2022/12/10 09:55:01;;;;;;;74.07;42.97;;;;;;;0.87;100.00;98780.59;5032371;28;20127;-85
2022/12/10 09:57:33;;;;;;;69.20;39.15;;;;;;;0.92;100.00;98786.44;5048894;28;20024;-85
2022/12/10 10:00:25;;;;;;;69.65;41.20;;;;;;;0.97;100.00;98787.22;5049112;28;20036;-85
2022/12/10 10:02:54;;;;;;;71.60;41.55;;;;;;;0.98;100.00;98778.66;5044317;28;20048;-85
2022/12/10 10:05:45;;;;;;;71.72;42.88;;;;;;;0.89;100.00;98763.47;5078988;28;20044;-85
2022/12/10 10:08:28;;;;;;;70.28;40.33;;;;;;;0.98;100.00;98773.50;5091666;28;20375;-85
2022/12/10 10:10:54;;;;;;;88.03;51.88;;;;;;;0.93;100.00;98759.13;5091826;28;20016;-85
2022/12/10 10:13:44;;;;;;;81.35;46.00;;;;;;;1.05;100.00;98763.09;5073418;28;20031;-85
2022/12/10 10:16:15;;;;;;;93.75;58.47;;;;;;;1.07;100.00;98762.22;5091809;28;20052;-85
2022/12/10 10:19:02;;;;;;;69.15;40.35;;;;;;;0.97;100.00;98738.50;5073377;28;20024;-85
2022/12/10 10:21:33;;;;;;;67.40;39.97;;;;;;;1.11;100.00;98751.00;5091303;28;20096;-85
2022/12/10 10:23:59;;;;;;;81.60;48.75;;;;;;;1.11;100.00;98758.69;5073423;28;20067;-85
2022/12/10 10:26:26;;;;;;;94.35;55.72;;;;;;;1.05;100.00;98748.56;5091855;28;20078;-85
2022/12/10 10:29:05;;;;;;;78.20;46.63;;;;;;;1.15;100.00;98757.75;5073578;28;20434;-85
2022/12/10 10:31:32;;;;;;;65.80;39.45;;;;;;;1.16;100.00;98750.91;5073232;28;20073;-85
2022/12/10 10:34:01;;;;;;;69.38;38.90;;;;;;;1.20;100.00;98757.63;5091573;28;20031;-85
2022/12/10 10:36:30;;;;;;;67.40;39.78;;;;;;;1.08;100.00;98740.81;5091170;28;20028;-85
2022/12/10 10:38:56;;;;;;;62.97;38.30;;;;;;;1.16;100.00;98756.88;5077227;28;20111;-85
2022/12/10 10:41:24;;;;;;;59.63;37.17;;;;;;;1.10;100.00;98746.75;5095227;28;20099;-85
2022/12/10 10:44:00;;;;;;;61.28;36.95;;;;;;;1.18;100.00;98747.44;5095311;28;20101;-85
2022/12/10 10:46:26;;;;;;;62.10;37.25;;;;;;;1.23;100.00;98747.31;5095017;28;20028;-85
2022/12/10 10:48:51;;;;;;;65.10;38.75;;;;;;;1.25;100.00;98745.53;5076937;28;20379;-85
2022/12/10 10:51:23;;;;;;;73.72;41.88;;;;;;;1.30;100.00;98755.69;5076800;28;20020;-85
2022/12/10 10:53:54;;;;;;;77.00;45.58;;;;;;;1.24;100.00;98743.88;5077116;28;20028;-85
2022/12/10 10:56:22;;;;;;;76.82;43.15;;;;;;;1.28;100.00;98737.78;5076892;28;20363;-85
2022/12/10 10:59:19;;;;;;;62.00;37.88;;;;;;;1.32;100.00;98749.66;5076934;28;20088;-85
2022/12/10 11:01:44;;;;;;;90.70;46.25;;;;;;;1.36;100.00;98747.88;5076733;28;20048;-85
2022/12/10 11:04:10;;;;;;;75.35;41.60;;;;;;;1.37;100.00;98734.16;5076886;28;20548;-85
2022/12/10 11:06:35;;;;;;;86.18;45.10;;;;;;;1.38;100.00;98730.72;5076385;28;20089;-85
2022/12/10 11:09:00;;;;;;;79.35;43.65;;;;;;;1.21;100.00;98714.00;5076488;28;20013;-85
2022/12/10 11:11:36;;;;;;;60.40;38.53;;;;;;;1.33;100.00;98737.69;5094591;28;20031;-85
2022/12/10 11:14:19;;;;;;;64.97;38.95;;;;;;;1.29;100.00;98751.44;5094571;28;20107;-85
2022/12/10 11:16:45;;;;;;;79.15;43.15;;;;;;;1.25;100.00;98751.50;5094361;28;20476;-85
2022/12/10 11:19:21;;;;;;;81.45;45.55;;;;;;;1.22;100.00;98751.59;5076511;28;20166;-85
2022/12/10 11:21:46;;;;;;;82.28;45.67;;;;;;;1.17;100.00;98753.41;5094497;28;20110;-85
2022/12/10 11:24:15;;;;;;;76.38;43.38;;;;;;;1.17;100.00;98758.53;5076277;28;20031;-85
2022/12/10 11:27:09;;;;;;;71.72;42.75;;;;;;;1.18;100.00;98761.94;5094396;28;20028;-85